Hampton, NH (03842)

8:55 AM EDT on July 01, 2015 (GMT -0400)
Hampton Airfield 7B3 | | Change Station
CLOSE
Current Station
Personal Weather Station
Location: North Hampton, NH
Elevation: 93 ft
Nearby Weather Stations

Elev 93 ft 42.96 °N, 70.83 °W | Updated 37 seconds ago

Rain
Rain
62.9 °F
Feels Like 62.9 °F
N
0.0
Wind Variable Wind from SE
Gusts 4.0 mph

Today
High -- | Low -- °F
--% Chance of Precip.
Yesterday
High -- | Low -- °F
Precip. -- in
5:08 AM 8:25 PM
Full, 100% visible
Pressure 29.87 in
Visibility 7.0 miles
Clouds Scattered Clouds 500 ft
Overcast 7000 ft
Dew Point 62 °F
Humidity 97%
Rainfall 0.23 in
Snow Depth Not available.
UV 1 out of 12
Pollen 1.20 out of 12
Air Quality Not available.
Flu Activity Not available.
METAR KPSM 011158Z 14010KT 7SM -RA SCT005 OVC070 17/16 A2986 RMK AO2A SLP115 P0002 60002 70002 T01690155 10172 20161 55006

More Conditions Fewer Conditions

Pressure 29.87 in
Visibility 7.0 miles
Clouds Scattered Clouds 500 ft
Overcast 7000 ft
Dew Point 62 °F
Humidity 97%
Rainfall 0.23 in
Snow Depth Not available.
UV 1 out of 12
Pollen 1.20 out of 12
Air Quality Not available.
Flu Activity Not available.
METAR KPSM 011158Z 14010KT 7SM -RA SCT005 OVC070 17/16 A2986 RMK AO2A SLP115 P0002 60002 70002 T01690155 10172 20161 55006

More Conditions Fewer Conditions

10-Day Weather Forecast

×

Almanac

Astronomy

Jul. 01, 2015 Rise Set
Actual Time
Civil Twilight
Nautical Twilight
Astronomical Twilight
Moon
Length of Visible Light
Length of Day
Tomorrow will be .
, % of the Moon is Illuminated

Today's Extremes

State Highs State Lows

Community

WunderPhotos

Upload Photos

1,834,187 photos uploaded!

WunderBlogs® & News

Nearby

Air Quality

  Air Quality AQ Index Pollutant
Not available.

Snow Depth

Station Depth Elevation

Earthquake Activity

City Distance Mag. Time & Date
Minimum magnitude displayed is 2.5.

Coastal Water Temperatures

Place Temperature

Stations

Nearby Weather Stations

Station Location Temp. Windchill Dew Point Humidity Wind Precip. Elev Updated Type